Time;durP1;ratioP1;P1;durP2;ratioP2;P2;SDS_P1;SDS_P2;PMS_P1;PMS_P2;Temp;Humidity;BMP_temperature;BMP_pressure;BME280_temperature;BME280_humidity;BME280_pressure;Samples;Min_cycle;Max_cycle;Signal;HPM_P1;HPM_P2
2021/12/15 00:01:04;;;;;;;;;44.25;36.75;;;;;11.51;66.16;102736.50;5075214;28;45531;-67
2021/12/15 00:03:30;;;;;;;;;46.75;39.25;;;;;11.55;65.96;102737.38;5082035;27;45461;-66
2021/12/15 00:05:56;;;;;;;;;48.25;36.25;;;;;11.54;66.13;102740.94;5082606;28;45304;-65
2021/12/15 00:08:22;;;;;;;;;46.50;38.75;;;;;11.55;66.01;102727.56;5082940;27;45227;-65
2021/12/15 00:10:48;;;;;;;;;48.50;39.00;;;;;11.56;66.42;102726.66;5083135;28;45154;-65
2021/12/15 00:13:16;;;;;;;;;49.25;42.50;;;;;11.56;66.24;102724.00;5081287;27;45467;-65
2021/12/15 00:15:43;;;;;;;;;48.75;39.75;;;;;11.54;66.01;102736.44;5082818;27;45399;-65
2021/12/15 00:18:08;;;;;;;;;50.25;37.75;;;;;11.51;66.05;102723.13;5082617;28;45368;-65
2021/12/15 00:20:34;;;;;;;;;52.75;39.00;;;;;11.50;66.10;102721.34;5080753;28;45399;-65
2021/12/15 00:23:00;;;;;;;;;46.25;40.00;;;;;11.52;66.07;102724.00;5082612;28;45314;-65
2021/12/15 00:25:29;;;;;;;;;44.50;37.50;;;;;11.55;66.18;102730.22;5082824;27;45290;-65
2021/12/15 00:27:55;;;;;;;;;46.00;37.75;;;;;11.54;66.03;102719.53;5082848;28;45326;-65
2021/12/15 00:30:22;;;;;;;;;55.50;41.50;;;;;11.58;66.00;102724.88;5082719;28;45279;-65
2021/12/15 00:32:49;;;;;;;;;43.00;38.50;;;;;11.57;66.03;102719.53;5082462;27;46340;-65
2021/12/15 00:35:15;;;;;;;;;39.25;34.75;;;;;11.52;65.71;102727.56;5082773;28;45529;-65
2021/12/15 00:37:40;;;;;;;;;52.50;41.50;;;;;11.49;65.83;102714.19;5082643;28;45282;-65
2021/12/15 00:40:10;;;;;;;;;43.25;36.25;;;;;11.52;66.09;102721.31;5082695;28;45349;-65
2021/12/15 00:42:35;;;;;;;;;47.00;38.25;;;;;11.52;65.76;102727.56;5082579;28;46195;-65
2021/12/15 00:45:01;;;;;;;;;47.25;39.00;;;;;11.53;65.97;102726.69;5082431;28;45468;-65
2021/12/15 00:47:26;;;;;;;;;45.50;37.50;;;;;11.49;65.81;102714.19;5082553;28;45348;-65
2021/12/15 00:49:52;;;;;;;;;43.75;36.00;;;;;11.52;66.03;102715.97;5082211;27;46351;-65
2021/12/15 00:52:18;;;;;;;;;49.25;38.50;;;;;11.50;66.11;102714.19;5081528;28;46359;-65
2021/12/15 00:54:43;;;;;;;;;45.00;38.75;;;;;11.51;66.12;102725.81;5082261;27;45433;-65
2021/12/15 00:57:08;;;;;;;;;51.25;41.00;;;;;11.52;66.09;102726.69;5082422;28;45318;-65
2021/12/15 00:59:34;;;;;;;;;47.50;39.00;;;;;11.54;66.19;102716.84;5082065;28;45401;-65
2021/12/15 01:02:00;;;;;;;;;47.50;39.75;;;;;11.54;66.03;102717.72;5082013;28;46025;-65
2021/12/15 01:04:26;;;;;;;;;47.00;39.25;;;;;11.50;65.92;102710.63;5082211;27;45252;-65
2021/12/15 01:06:57;;;;;;;;;44.75;39.00;;;;;11.48;65.75;102720.47;5082548;28;45243;-65
2021/12/15 01:09:29;;;;;;;;;41.50;36.50;;;;;11.46;65.96;102719.56;5082147;27;45303;-65
2021/12/15 01:12:11;;;;;;;;;46.00;38.75;;;;;11.44;66.08;102714.25;5081512;27;46078;-65
2021/12/15 01:20:22;;;;;;;;;43.50;37.25;;;;;11.36;66.18;102705.34;5081970;28;45248;-65
2021/12/15 01:22:51;;;;;;;;;47.50;36.25;;;;;11.43;66.07;102727.63;5081691;27;45702;-65
2021/12/15 01:25:19;;;;;;;;;41.00;35.50;;;;;11.44;65.90;102718.69;5075227;27;45276;-65
2021/12/15 01:27:46;;;;;;;;;39.00;34.50;;;;;11.45;66.14;102715.13;5082180;28;45275;-65
2021/12/15 01:30:14;;;;;;;;;46.50;38.25;;;;;11.43;65.95;102712.44;5081130;27;45385;-65
2021/12/15 01:32:39;;;;;;;;;51.00;40.50;;;;;11.46;65.94;102725.81;5081875;28;45494;-66
2021/12/15 01:35:06;;;;;;;;;45.00;36.75;;;;;11.45;66.00;102718.66;5081670;28;45331;-65
2021/12/15 01:37:31;;;;;;;;;37.75;34.25;;;;;11.42;66.11;102715.13;5081870;28;45239;-65
2021/12/15 01:39:57;;;;;;;;;45.25;37.25;;;;;11.41;65.98;102708.91;5081579;27;45236;-65
2021/12/15 01:42:27;;;;;;;;;45.25;37.00;;;;;11.45;65.80;102715.13;5081708;28;46196;-65
2021/12/15 01:47:37;;;;;;;;;45.25;36.75;;;;;11.43;65.93;102714.25;5081744;27;45325;-65
2021/12/15 01:50:04;;;;;;;;;45.50;38.75;;;;;11.36;66.05;102705.34;5081294;27;45432;-65
2021/12/15 01:52:35;;;;;;;;;48.25;39.50;;;;;11.39;65.82;102724.03;5080771;27;45464;-65
2021/12/15 01:55:17;;;;;;;;;40.00;36.25;;;;;11.40;65.72;102725.81;5081686;28;45266;-65
2021/12/15 01:57:45;;;;;;;;;36.75;33.75;;;;;11.39;65.82;102726.72;5081606;28;45230;-65
2021/12/15 02:00:28;;;;;;;;;41.50;35.00;;;;;11.39;65.96;102724.03;5081037;28;45284;-65
2021/12/15 02:02:56;;;;;;;;;36.25;33.50;;;;;11.41;65.90;102732.06;5067881;28;46189;-65
2021/12/15 02:05:24;;;;;;;;;36.25;34.00;;;;;11.35;66.11;102724.97;5081259;28;45441;-65
2021/12/15 02:07:50;;;;;;;;;38.50;34.50;;;;;11.39;65.83;102721.34;5081577;28;45261;-65
2021/12/15 02:10:19;;;;;;;;;38.75;33.50;;;;;11.42;65.64;102731.16;5081016;28;45311;-65
2021/12/15 02:12:45;;;;;;;;;41.25;33.25;;;;;11.38;66.42;102730.31;5080981;27;46190;-65
2021/12/15 02:15:17;;;;;;;;;41.50;34.25;;;;;11.41;65.72;102732.97;5080341;28;45335;-65
2021/12/15 02:17:44;;;;;;;;;43.75;36.75;;;;;11.41;66.12;102743.66;5081445;28;45314;-65
2021/12/15 02:20:13;;;;;;;;;34.50;30.25;;;;;11.38;66.07;102741.00;5081201;28;45413;-65
2021/12/15 02:22:39;;;;;;;;;50.00;39.00;;;;;11.43;66.05;102743.66;5080572;28;45433;-65
2021/12/15 02:25:09;;;;;;;;;37.00;33.75;;;;;11.44;65.80;102748.09;5080747;28;45369;-65
2021/12/15 02:27:35;;;;;;;;;35.50;33.75;;;;;11.43;65.80;102749.88;5081251;28;45207;-65
2021/12/15 02:30:20;;;;;;;;;39.00;34.00;;;;;11.45;65.87;102749.88;5080488;27;45525;-65
2021/12/15 02:38:35;;;;;;;;;30.25;25.25;;;;;11.49;65.79;102740.94;5080819;28;45513;-65
2021/12/15 02:41:08;;;;;;;;;36.50;33.50;;;;;11.47;65.71;102746.28;5059773;27;45233;-65
2021/12/15 02:43:34;;;;;;;;;42.75;37.00;;;;;11.43;65.73;102746.34;5080439;28;46395;-65
2021/12/15 02:45:59;;;;;;;;;39.50;35.00;;;;;11.42;65.66;102737.41;5080634;28;45243;-65
2021/12/15 02:48:25;;;;;;;;;39.00;36.00;;;;;11.44;65.83;102742.75;5080701;27;45527;-65
2021/12/15 02:50:50;;;;;;;;;36.00;33.00;;;;;11.41;65.65;102738.31;5080229;27;45402;-65
2021/12/15 02:53:17;;;;;;;;;37.00;33.75;;;;;11.46;66.04;102738.28;5080045;28;46475;-65
2021/12/15 02:55:42;;;;;;;;;41.75;33.50;;;;;11.44;65.95;102740.97;5080361;28;45626;-65
2021/12/15 02:58:08;;;;;;;;;38.00;33.00;;;;;11.44;65.62;102740.06;5080536;28;45410;-65
2021/12/15 03:00:48;;;;;;;;;39.50;32.00;;;;;11.47;65.63;102742.72;5080278;28;45459;-65
2021/12/15 03:05:47;;;;;;;;;30.50;28.50;;;;;11.46;65.39;102744.53;5080416;28;45248;-65
2021/12/15 03:08:22;;;;;;;;;33.25;28.25;;;;;11.45;65.66;102739.19;5080495;28;45462;-65
2021/12/15 03:16:20;;;;;;;;;32.25;28.75;;;;;11.45;65.72;102726.69;5080317;28;45170;-65
2021/12/15 03:18:46;;;;;;;;;38.25;34.75;;;;;11.44;65.90;102727.63;5080309;28;45212;-65
2021/12/15 03:21:25;;;;;;;;;27.75;23.00;;;;;11.50;65.65;102737.38;5078641;28;45660;-65
2021/12/15 03:23:56;;;;;;;;;34.25;30.50;;;;;11.46;65.31;102730.25;5080086;28;47196;-65
2021/12/15 03:26:35;;;;;;;;;38.50;30.75;;;;;11.47;65.83;102748.97;5078465;28;45339;-65
2021/12/15 03:37:09;;;;;;;;;37.00;33.75;;;;;11.50;65.37;102732.91;5079969;28;45588;-65
2021/12/15 03:39:41;;;;;;;;;40.50;34.25;;;;;11.47;65.65;102732.91;5080145;28;45471;-65
2021/12/15 03:42:09;;;;;;;;;35.75;33.00;;;;;11.49;65.51;102744.53;5079922;28;45331;-65
2021/12/15 03:44:39;;;;;;;;;26.75;20.00;;;;;11.50;65.48;102746.28;5079496;27;46306;-65
2021/12/15 03:47:09;;;;;;;;;41.50;34.25;;;;;11.51;65.77;102752.53;5079900;28;45405;-65
2021/12/15 03:49:35;;;;;;;;;37.25;33.75;;;;;11.45;65.57;102740.06;5079703;27;45329;-65
2021/12/15 03:52:02;;;;;;;;;37.00;33.75;;;;;11.47;65.62;102745.41;5078732;28;45236;-65
2021/12/15 03:54:27;;;;;;;;;33.50;31.00;;;;;11.52;65.46;102740.06;5079554;28;47568;-65
2021/12/15 03:56:54;;;;;;;;;34.25;29.75;;;;;11.48;65.33;102742.72;5079541;28;45327;-65
2021/12/15 03:59:20;;;;;;;;;31.50;29.25;;;;;11.54;65.15;102752.50;5079627;28;45386;-65
2021/12/15 04:01:46;;;;;;;;;34.25;30.00;;;;;11.56;65.30;102749.81;5079633;28;45519;-65
2021/12/15 04:04:11;;;;;;;;;31.25;29.75;;;;;11.56;65.27;102747.16;5079613;28;45248;-65
2021/12/15 04:06:40;;;;;;;;;35.50;32.00;;;;;11.53;65.44;102749.84;5079646;28;45353;-65
2021/12/15 04:09:08;;;;;;;;;34.00;30.50;;;;;11.51;65.17;102752.53;5079701;28;45316;-65
2021/12/15 04:11:36;;;;;;;;;35.00;30.25;;;;;11.50;65.32;102751.63;5079443;28;45516;-65
2021/12/15 04:14:08;;;;;;;;;40.00;31.25;;;;;11.52;65.15;102750.75;5077383;28;46339;-65
2021/12/15 04:19:03;;;;;;;;;35.25;30.75;;;;;11.49;65.00;102747.19;5079568;27;45314;-65
2021/12/15 04:21:29;;;;;;;;;32.00;31.00;;;;;11.48;65.22;102737.38;5077211;28;45426;-65
2021/12/15 04:23:56;;;;;;;;;32.00;29.00;;;;;11.51;65.22;102747.19;5079330;28;45254;-65
2021/12/15 04:26:23;;;;;;;;;28.50;26.00;;;;;11.50;65.16;102748.06;5079076;28;45358;-65
2021/12/15 04:28:49;;;;;;;;;32.00;30.75;;;;;11.44;65.35;102735.63;5079320;28;45328;-65
2021/12/15 04:31:18;;;;;;;;;33.25;32.00;;;;;11.46;65.44;102740.94;5079347;28;45311;-65
2021/12/15 04:33:55;;;;;;;;;34.25;33.00;;;;;11.47;65.21;102732.91;5079327;28;45319;-65
2021/12/15 04:36:24;;;;;;;;;31.75;30.75;;;;;11.49;65.08;102743.59;5079204;27;45365;-65
2021/12/15 04:38:51;;;;;;;;;32.75;28.00;;;;;11.49;65.47;102733.81;5082719;27;45376;-65
2021/12/15 04:41:19;;;;;;;;;29.75;29.25;;;;;11.48;65.14;102739.19;5082561;28;45256;-65
2021/12/15 04:43:55;;;;;;;;;37.00;32.00;;;;;11.43;65.42;102732.97;5082340;28;46993;-65
2021/12/15 04:46:20;;;;;;;;;37.00;31.50;;;;;11.44;65.13;102749.00;5082078;27;45230;-65
2021/12/15 04:48:46;;;;;;;;;32.25;30.75;;;;;11.42;65.00;102744.53;5082643;27;45251;-65
2021/12/15 04:51:11;;;;;;;;;30.25;28.25;;;;;11.41;65.05;102751.69;5082057;27;45454;-65
2021/12/15 04:53:37;;;;;;;;;33.50;31.25;;;;;11.42;65.38;102753.44;5082252;28;45482;-65
2021/12/15 04:56:04;;;;;;;;;32.25;27.25;;;;;11.40;65.10;102746.34;5082367;27;45649;-65
2021/12/15 04:58:30;;;;;;;;;32.25;31.75;;;;;11.45;65.36;102752.56;5082280;28;45445;-65
2021/12/15 05:00:59;;;;;;;;;30.25;27.00;;;;;11.44;65.23;102754.34;5082305;28;45529;-65
2021/12/15 05:03:26;;;;;;;;;33.50;31.75;;;;;11.44;64.65;102757.03;5082272;28;45161;-65
2021/12/15 05:05:52;;;;;;;;;30.75;30.25;;;;;11.41;64.95;102762.38;5082145;28;45523;-65
2021/12/15 05:08:18;;;;;;;;;34.50;30.00;;;;;11.40;65.29;102765.06;5082357;28;45307;-65
2021/12/15 05:10:43;;;;;;;;;33.25;30.25;;;;;11.39;65.20;102757.91;5081870;28;45303;-65
2021/12/15 05:13:10;;;;;;;;;28.00;22.75;;;;;11.36;65.16;102760.59;5081953;28;47259;-65
2021/12/15 05:15:36;;;;;;;;;28.00;27.00;;;;;11.39;65.42;102766.81;5081297;28;45529;-65
2021/12/15 05:18:03;;;;;;;;;30.00;29.00;;;;;11.38;65.17;102769.53;5082158;28;45254;-65
2021/12/15 05:20:29;;;;;;;;;32.25;22.25;;;;;11.32;64.86;102759.72;5079335;28;45552;-65
2021/12/15 05:22:55;;;;;;;;;27.75;27.00;;;;;11.33;64.95;102769.53;5077969;28;46165;-65
2021/12/15 05:25:21;;;;;;;;;30.25;26.25;;;;;11.34;65.32;102768.63;5081546;28;45247;-65
2021/12/15 05:27:47;;;;;;;;;33.25;28.00;;;;;11.30;65.01;102772.22;5082221;28;45237;-65
2021/12/15 05:30:17;;;;;;;;;31.00;29.25;;;;;11.34;65.48;102771.28;5081633;27;45525;-65
2021/12/15 05:32:42;;;;;;;;;32.75;30.00;;;;;11.36;65.15;102780.22;5081878;28;45178;-65
2021/12/15 05:35:09;;;;;;;;;29.75;28.75;;;;;11.36;65.24;102782.00;5081957;28;45279;-65
2021/12/15 05:37:35;;;;;;;;;33.50;29.25;;;;;11.36;64.79;102782.00;5081695;28;45231;-65
2021/12/15 05:40:02;;;;;;;;;29.25;27.00;;;;;11.34;64.92;102784.66;5081696;27;45227;-65
2021/12/15 05:42:28;;;;;;;;;31.75;29.00;;;;;11.30;65.08;102786.47;5081638;27;46698;-65
2021/12/15 05:44:55;;;;;;;;;31.75;28.75;;;;;11.30;65.12;102786.47;5081176;27;45329;-65
2021/12/15 05:47:21;;;;;;;;;32.25;27.50;;;;;11.37;64.96;102791.81;5063259;28;45426;-65
2021/12/15 05:49:48;;;;;;;;;29.50;27.00;;;;;11.32;65.00;102775.75;5080360;28;45290;-65
2021/12/15 05:52:14;;;;;;;;;29.25;29.00;;;;;11.34;64.73;102790.00;5080985;28;45476;-65
2021/12/15 05:54:40;;;;;;;;;27.50;25.00;;;;;11.33;65.08;102793.59;5081483;28;45256;-65
2021/12/15 05:57:06;;;;;;;;;29.00;27.25;;;;;11.34;65.10;102786.47;5081527;28;45263;-65
2021/12/15 05:59:31;;;;;;;;;37.00;32.50;;;;;11.35;65.17;102799.81;5081191;27;45514;-65
2021/12/15 06:01:57;;;;;;;;;28.50;24.00;;;;;11.35;65.07;102794.47;5081466;28;46274;-65
2021/12/15 06:04:22;;;;;;;;;24.25;23.50;;;;;11.34;65.18;102800.72;5081318;27;45281;-65
2021/12/15 06:06:48;;;;;;;;;32.75;28.75;;;;;11.32;65.12;102797.16;5067347;28;45333;-65
2021/12/15 06:09:14;;;;;;;;;29.50;27.25;;;;;11.34;65.03;102802.50;5080846;28;45309;-65
2021/12/15 06:11:41;;;;;;;;;34.00;32.50;;;;;11.33;65.03;102804.28;5081066;28;46871;-65
2021/12/15 06:14:07;;;;;;;;;32.50;30.25;;;;;11.31;64.85;102800.75;5079129;28;46785;-65
2021/12/15 06:16:34;;;;;;;;;27.25;25.25;;;;;11.28;64.98;102804.31;5081094;28;45244;-65
2021/12/15 06:19:02;;;;;;;;;33.25;31.75;;;;;11.32;65.01;102816.75;5081198;28;45509;-65
2021/12/15 06:21:28;;;;;;;;;27.50;21.00;;;;;11.33;64.88;102812.31;5062325;28;46181;-65
2021/12/15 06:23:53;;;;;;;;;27.50;26.50;;;;;11.34;64.54;102815.88;5081094;28;45306;-65
2021/12/15 06:26:19;;;;;;;;;24.50;20.25;;;;;11.26;64.82;102803.41;5080815;28;45356;-65
2021/12/15 06:28:46;;;;;;;;;31.50;22.00;;;;;11.35;64.98;102818.53;5080888;28;45533;-65
2021/12/15 06:31:14;;;;;;;;;26.25;23.00;;;;;11.30;64.77;102815.88;5079947;28;45551;-65
2021/12/15 06:33:41;;;;;;;;;29.25;22.50;;;;;11.36;64.70;102820.34;5080443;28;45618;-65
2021/12/15 06:36:08;;;;;;;;;26.75;24.25;;;;;11.35;64.73;102828.34;5080413;28;45438;-65
2021/12/15 06:38:39;;;;;;;;;29.25;24.50;;;;;11.35;64.82;102826.56;5080516;27;45268;-65
2021/12/15 06:41:07;;;;;;;;;31.25;24.50;;;;;11.36;64.98;102828.34;5080262;28;45355;-65
2021/12/15 06:43:33;;;;;;;;;23.75;21.75;;;;;11.38;64.61;102825.69;5079457;28;45703;-65
2021/12/15 06:59:31;;;;;;;;;20.50;19.50;;;;;11.35;64.65;102844.41;5079741;28;46735;-65
2021/12/15 07:01:58;;;;;;;;;28.75;24.25;;;;;11.30;65.02;102845.28;5079840;28;45462;-65
2021/12/15 07:04:24;;;;;;;;;26.25;22.25;;;;;11.28;65.43;102844.41;5080191;27;45771;-65
2021/12/15 07:06:51;;;;;;;;;31.25;26.00;;;;;11.29;65.03;102842.63;5080493;28;45545;-65
2021/12/15 07:09:17;;;;;;;;;31.50;27.50;;;;;11.34;64.76;102848.84;5080236;28;45248;-65
2021/12/15 07:11:43;;;;;;;;;25.25;22.75;;;;;11.35;64.55;102847.97;5079883;28;46203;-65
2021/12/15 07:14:09;;;;;;;;;26.75;23.25;;;;;11.36;64.83;102851.50;5077154;28;45177;-65
2021/12/15 07:16:40;;;;;;;;;23.50;22.25;;;;;11.36;64.65;102855.09;5078124;28;45573;-65
2021/12/15 07:19:18;;;;;;;;;28.50;23.00;;;;;11.35;64.56;102852.44;5080079;28;45323;-65
2021/12/15 07:21:54;;;;;;;;;22.50;19.75;;;;;11.32;64.43;102856.84;5078209;28;46237;-65
2021/12/15 07:24:21;;;;;;;;;30.75;26.75;;;;;11.24;65.05;102847.06;5076933;28;45162;-74
2021/12/15 07:26:48;;;;;;;;;33.25;29.75;;;;;11.28;65.12;102856.88;5078553;27;45543;-78
2021/12/15 07:29:13;;;;;;;;;44.50;35.00;;;;;11.29;64.95;102855.97;5061373;28;45382;-75
2021/12/15 07:31:39;;;;;;;;;37.25;32.00;;;;;11.32;64.75;102866.69;5081707;27;45485;-66
2021/12/15 07:34:04;;;;;;;;;40.25;35.75;;;;;11.33;65.01;102873.81;5087301;27;45506;-67
2021/12/15 07:36:29;;;;;;;;;31.00;29.50;;;;;11.35;65.09;102872.03;5089398;27;45646;-66
2021/12/15 07:38:57;;;;;;;;;24.75;23.50;;;;;11.37;64.38;102872.91;5089944;27;46902;-67
2021/12/15 07:41:27;;;;;;;;;22.25;19.75;;;;;11.36;64.69;102872.91;5088191;27;46212;-67
2021/12/15 07:43:56;;;;;;;;;16.00;14.75;;;;;11.36;64.66;102878.25;5082224;27;45410;-67
2021/12/15 07:46:22;;;;;;;;;17.25;15.50;;;;;11.39;64.54;102884.47;5089099;27;45522;-66
2021/12/15 07:48:47;;;;;;;;;18.50;15.50;;;;;11.34;64.46;102883.59;5088387;27;45678;-67
2021/12/15 07:51:13;;;;;;;;;17.25;15.00;;;;;11.33;64.59;102879.16;5081326;27;46042;-67
2021/12/15 07:53:41;;;;;;;;;14.50;13.50;;;;;11.37;64.30;102888.06;5067151;28;45307;-67
2021/12/15 07:56:07;;;;;;;;;14.50;13.50;;;;;11.39;64.48;102895.19;5064975;28;45543;-67
2021/12/15 07:58:33;;;;;;;;;14.75;14.75;;;;;11.39;64.29;102895.19;5065027;28;45571;-67
2021/12/15 08:01:02;;;;;;;;;18.75;17.50;;;;;11.42;64.21;102896.97;5066920;28;45505;-66
2021/12/15 08:03:29;;;;;;;;;15.50;15.00;;;;;11.44;64.08;102898.75;5068287;28;45459;-67
2021/12/15 08:05:55;;;;;;;;;17.25;16.00;;;;;11.43;64.20;102891.63;5065752;28;45473;-67
2021/12/15 08:08:21;;;;;;;;;15.50;14.50;;;;;11.42;64.01;102888.94;5066388;28;45399;-67
2021/12/15 08:10:47;;;;;;;;;16.50;15.50;;;;;11.39;64.46;102886.28;5065882;28;45366;-67
2021/12/15 08:13:15;;;;;;;;;14.50;14.00;;;;;11.37;64.59;102894.28;5069066;28;45377;-67
2021/12/15 08:15:41;;;;;;;;;20.75;16.75;;;;;11.35;64.19;102889.84;5060691;28;45543;-66
2021/12/15 08:18:07;;;;;;;;;16.25;13.25;;;;;11.37;64.50;102898.75;5074277;27;45665;-65
2021/12/15 08:20:34;;;;;;;;;18.25;17.50;;;;;11.38;63.93;102905.91;5078964;27;46036;-65
2021/12/15 08:23:00;;;;;;;;;19.25;15.75;;;;;11.37;64.06;102899.66;5067938;28;46088;-66
2021/12/15 08:25:25;;;;;;;;;19.75;18.75;;;;;11.38;64.24;102908.56;5080148;27;45776;-66
2021/12/15 08:27:52;;;;;;;;;18.25;16.00;;;;;11.41;64.27;102901.44;5076999;27;45918;-66
2021/12/15 08:30:22;;;;;;;;;17.75;14.75;;;;;11.38;64.30;102896.09;5081412;28;45465;-66
2021/12/15 08:32:51;;;;;;;;;20.00;15.50;;;;;11.42;64.19;102897.84;5075442;28;45597;-66
2021/12/15 08:35:19;;;;;;;;;16.00;14.00;;;;;11.38;64.30;102896.09;5070825;27;45371;-66
2021/12/15 08:37:45;;;;;;;;;16.00;15.75;;;;;11.42;64.40;102903.19;5080378;28;45835;-66
2021/12/15 08:40:12;;;;;;;;;15.75;14.50;;;;;11.44;64.64;102909.47;5081031;28;46401;-66
2021/12/15 08:42:37;;;;;;;;;18.25;15.00;;;;;11.46;64.70;102906.75;5081922;28;45310;-66
2021/12/15 08:45:04;;;;;;;;;16.75;15.00;;;;;11.46;64.58;102910.34;5089394;27;45449;-66
2021/12/15 08:47:30;;;;;;;;;19.75;18.00;;;;;11.48;64.34;102913.00;5081029;27;45551;-66
2021/12/15 08:49:55;;;;;;;;;23.25;16.75;;;;;11.48;64.16;102913.91;5079383;27;45624;-67
2021/12/15 08:52:21;;;;;;;;;16.50;15.00;;;;;11.46;64.18;102907.66;5080967;27;45498;-66
2021/12/15 08:54:47;;;;;;;;;18.50;18.50;;;;;11.46;64.45;102906.75;5081840;27;45658;-66
2021/12/15 08:57:12;;;;;;;;;20.00;18.75;;;;;11.45;64.54;102910.34;5081077;27;45403;-66
2021/12/15 08:59:38;;;;;;;;;21.50;18.25;;;;;11.44;64.88;102914.81;5081542;28;45472;-66
2021/12/15 09:02:04;;;;;;;;;27.50;23.50;;;;;11.44;64.61;102911.22;5081699;28;45354;-66
2021/12/15 09:04:29;;;;;;;;;21.75;18.50;;;;;11.40;64.61;102910.34;5081361;28;45398;-66
2021/12/15 09:06:55;;;;;;;;;21.50;19.75;;;;;11.43;64.67;102917.47;5080559;27;45436;-66
2021/12/15 09:09:21;;;;;;;;;19.50;15.50;;;;;11.45;64.38;102921.03;5081846;28;45410;-66
2021/12/15 09:11:49;;;;;;;;;20.25;18.00;;;;;11.46;64.89;102920.13;5081098;28;45356;-67
2021/12/15 09:14:15;;;;;;;;;19.00;18.00;;;;;11.43;64.79;102910.34;5081224;28;45252;-66
2021/12/15 09:16:44;;;;;;;;;23.75;20.50;;;;;11.42;64.67;102911.22;5080494;28;45593;-66
2021/12/15 09:19:10;;;;;;;;;20.25;16.50;;;;;11.45;64.90;102919.25;5081136;27;45962;-66
2021/12/15 09:21:37;;;;;;;;;20.50;18.75;;;;;11.50;64.63;102930.81;5069278;28;45367;-65
2021/12/15 09:24:06;;;;;;;;;21.50;20.75;;;;;11.48;65.18;102924.59;5079501;27;45515;-66
2021/12/15 09:26:33;;;;;;;;;18.25;18.25;;;;;11.48;64.89;102926.38;5073126;28;45454;-67
2021/12/15 09:28:59;;;;;;;;;20.25;19.00;;;;;11.48;65.05;102927.28;5080632;27;45413;-66
2021/12/15 09:31:25;;;;;;;;;18.25;18.25;;;;;11.52;64.87;102929.94;5081285;28;45409;-66
2021/12/15 09:33:53;;;;;;;;;22.00;21.25;;;;;11.54;64.92;102938.84;5081383;28;45431;-66
2021/12/15 09:36:20;;;;;;;;;20.75;18.75;;;;;11.54;64.80;102934.38;5080658;28;45605;-66
2021/12/15 09:38:51;;;;;;;;;17.50;15.75;;;;;11.54;64.63;102938.84;5081065;27;45557;-67
2021/12/15 09:41:18;;;;;;;;;11.25;11.25;;;;;11.50;65.13;102922.81;5081258;27;45352;-66
2021/12/15 09:43:45;;;;;;;;;18.50;16.50;;;;;11.56;64.56;102929.94;5081109;27;45267;-66
2021/12/15 09:46:16;;;;;;;;;18.25;15.75;;;;;11.56;65.17;102932.63;5080454;27;45583;-66
2021/12/15 10:02:44;;;;;;;;;23.75;20.75;;;;;11.62;65.03;102929.91;5080595;28;45425;-66
2021/12/15 10:05:27;;;;;;;;;22.50;19.00;;;;;11.60;65.00;102931.72;5081030;28;45409;-66
2021/12/15 10:11:31;;;;;;;;;23.00;20.00;;;;;11.60;65.48;102931.72;5037678;28;45580;-67
2021/12/15 10:19:46;;;;;;;;;21.75;20.75;;;;;11.54;64.84;102946.88;5080628;28;45239;-66
2021/12/15 10:22:26;;;;;;;;;15.00;15.00;;;;;11.43;65.43;102933.53;5071271;28;47360;-66
2021/12/15 10:25:08;;;;;;;;;19.00;18.50;;;;;11.41;65.25;102930.84;5079882;28;45798;-67
2021/12/15 10:27:52;;;;;;;;;20.00;18.75;;;;;11.44;65.61;102935.28;5079969;27;45374;-67
2021/12/15 10:30:48;;;;;;;;;21.50;20.00;;;;;11.50;65.77;102932.63;5088270;27;45239;-67
2021/12/15 10:33:31;;;;;;;;;23.50;18.75;;;;;11.53;66.13;102926.34;5083113;27;45326;-67
2021/12/15 10:36:00;;;;;;;;;20.00;20.00;;;;;11.63;65.86;102936.19;5086690;27;45674;-67
2021/12/15 10:38:44;;;;;;;;;21.75;20.75;;;;;11.70;65.62;102942.41;5085801;27;45567;-67
2021/12/15 10:41:15;;;;;;;;;26.25;20.50;;;;;11.69;65.66;102941.50;5074857;27;45453;-67
2021/12/15 10:44:00;;;;;;;;;23.00;21.75;;;;;11.72;65.36;102938.81;5078956;28;46586;-67
2021/12/15 10:46:29;;;;;;;;;23.75;22.50;;;;;11.78;65.82;102940.63;5068737;28;45716;-67
2021/12/15 10:49:07;;;;;;;;;19.50;17.50;;;;;11.81;65.42;102929.88;5079197;28;45406;-67
2021/12/15 10:51:47;;;;;;;;;17.50;14.50;;;;;11.84;65.66;102932.53;5079332;28;45488;-66
2021/12/15 10:54:27;;;;;;;;;20.75;20.00;;;;;11.87;65.69;102924.50;5066102;28;45432;-67
2021/12/15 10:57:06;;;;;;;;;21.00;20.00;;;;;11.91;65.44;102920.03;5076054;27;45535;-67
2021/12/15 10:59:35;;;;;;;;;19.50;15.75;;;;;11.89;65.23;102919.16;5083443;27;45634;-65
2021/12/15 11:02:12;;;;;;;;;22.75;22.00;;;;;11.89;65.25;102920.03;5091325;27;45679;-66
2021/12/15 11:04:45;;;;;;;;;20.50;15.25;;;;;11.92;65.04;102921.88;5067708;27;47423;-66
2021/12/15 11:07:26;;;;;;;;;16.00;15.50;;;;;11.93;65.30;102913.84;5089315;27;45659;-66
2021/12/15 11:09:59;;;;;;;;;22.50;17.25;;;;;11.97;65.17;102918.25;5083499;27;45430;-66
2021/12/15 11:12:32;;;;;;;;;17.25;15.00;;;;;11.97;65.22;102917.38;5077902;28;45929;-66
2021/12/15 11:15:08;;;;;;;;;19.00;15.25;;;;;11.92;65.07;102905.81;5079260;28;45370;-66
2021/12/15 11:17:37;;;;;;;;;18.75;15.50;;;;;11.96;64.80;102920.94;5091058;27;45729;-66
2021/12/15 11:20:06;;;;;;;;;20.50;19.25;;;;;11.88;64.83;102912.94;5079640;28;45347;-66
2021/12/15 11:22:39;;;;;;;;;17.50;15.75;;;;;11.86;65.00;102920.94;5061175;28;45614;-66
2021/12/15 11:25:16;;;;;;;;;17.75;17.75;;;;;11.87;64.86;102924.50;5079044;28;46141;-66
2021/12/15 11:27:41;;;;;;;;;16.25;15.00;;;;;11.86;64.91;102917.38;5077962;27;45319;-66
2021/12/15 11:30:14;;;;;;;;;19.00;16.50;;;;;11.81;65.15;102920.09;5080056;27;45960;-65
2021/12/15 11:32:46;;;;;;;;;16.00;16.00;;;;;11.75;64.91;102917.41;5059400;28;45548;-66
2021/12/15 11:35:23;;;;;;;;;19.25;17.25;;;;;11.72;65.12;102909.38;5084269;27;45973;-66
2021/12/15 11:37:51;;;;;;;;;18.75;15.25;;;;;11.75;65.43;102909.38;5087284;27;45502;-66
2021/12/15 11:40:24;;;;;;;;;20.50;18.00;;;;;11.78;65.22;102906.72;5084055;27;45548;-66
2021/12/15 11:42:49;;;;;;;;;17.75;17.25;;;;;11.76;65.33;102897.81;5089698;27;45452;-66
2021/12/15 11:45:15;;;;;;;;;16.25;13.25;;;;;11.75;65.24;102889.78;5077467;27;46026;-66
2021/12/15 11:47:41;;;;;;;;;19.50;16.75;;;;;11.84;65.34;102901.34;5074755;28;45378;-66
2021/12/15 11:50:11;;;;;;;;;15.75;12.50;;;;;11.88;64.84;102902.22;5072737;28;45403;-66
2021/12/15 11:52:46;;;;;;;;;14.50;12.50;;;;;11.89;65.24;102909.34;5086596;27;45340;-66
2021/12/15 11:55:30;;;;;;;;;15.75;15.75;;;;;11.93;65.20;102902.22;5089813;27;45350;-66
2021/12/15 11:57:57;;;;;;;;;14.75;14.00;;;;;11.91;65.02;102902.25;5072067;27;45334;-66
2021/12/15 12:00:26;;;;;;;;;13.75;12.00;;;;;11.89;65.02;102897.75;5083222;27;45391;-66
2021/12/15 12:02:55;;;;;;;;;10.25;10.00;;;;;11.92;64.94;102898.66;5083417;28;45232;-66
2021/12/15 12:05:32;;;;;;;;;11.25;11.00;;;;;11.91;64.69;102899.56;5082031;28;46294;-66
2021/12/15 12:08:05;;;;;;;;;7.25;7.25;;;;;11.79;64.86;102889.72;5082982;27;45529;-66
2021/12/15 12:10:46;;;;;;;;;8.50;8.50;;;;;11.82;65.25;102892.41;5082794;27;45412;-66
2021/12/15 12:13:22;;;;;;;;;10.50;10.50;;;;;11.74;64.78;102878.16;5082203;27;45166;-66
2021/12/15 12:15:50;;;;;;;;;13.50;11.75;;;;;11.79;65.25;102870.13;5083004;28;45557;-66
2021/12/15 12:18:21;;;;;;;;;10.75;8.50;;;;;11.90;65.12;102889.72;5082766;28;45364;-66
2021/12/15 12:20:50;;;;;;;;;11.25;11.00;;;;;11.86;64.81;102886.16;5082885;28;45234;-66
2021/12/15 12:23:23;;;;;;;;;15.25;11.50;;;;;11.82;65.16;102884.38;5082711;27;45458;-66
2021/12/15 12:25:51;;;;;;;;;7.00;6.50;;;;;11.84;65.03;102896.00;5080119;28;46460;-66